Time;durP1;ratioP1;P1;durP2;ratioP2;P2;SDS_P1;SDS_P2;PMS_P1;PMS_P2;Temp;Humidity;BMP_temperature;BMP_pressure;BME280_temperature;BME280_humidity;BME280_pressure;Samples;Min_cycle;Max_cycle;Signal;HPM_P1;HPM_P2
2022/05/17 00:00:49;;;;;;;4.90;2.60;;;;;;;18.99;63.40;100807.25;4975716;28;20391;-72
2022/05/17 00:03:15;;;;;;;3.90;2.50;;;;;;;19.03;63.17;100805.56;4974634;28;20443;-72
2022/05/17 00:05:41;;;;;;;6.73;2.70;;;;;;;19.11;62.91;100793.91;4975440;28;20483;-72
2022/05/17 00:08:07;;;;;;;6.25;2.78;;;;;;;19.15;62.78;100797.72;4975463;28;20404;-72
2022/05/17 00:10:32;;;;;;;8.73;2.77;;;;;;;19.15;62.70;100795.78;4972792;28;20827;-72
2022/05/17 00:12:57;;;;;;;6.57;3.17;;;;;;;19.09;63.03;100802.44;4975451;28;20400;-72
2022/05/17 00:15:23;;;;;;;5.63;2.80;;;;;;;19.10;63.01;100790.34;4975354;28;20496;-72
2022/05/17 00:17:50;;;;;;;4.70;3.10;;;;;;;19.16;62.63;100802.91;4975291;28;20451;-72
2022/05/17 00:20:16;;;;;;;5.95;2.65;;;;;;;19.14;62.78;100794.13;4975250;28;20760;-72
2022/05/17 00:22:42;;;;;;;5.28;3.20;;;;;;;19.08;62.82;100802.72;4975387;28;20411;-72
2022/05/17 00:25:10;;;;;;;5.60;2.97;;;;;;;19.08;62.90;100798.06;4973353;28;20420;-72
2022/05/17 00:27:35;;;;;;;5.35;2.80;;;;;;;19.08;62.94;100810.97;4975090;28;20419;-72
2022/05/17 00:30:01;;;;;;;5.67;3.17;;;;;;;19.08;62.73;100800.81;4975173;28;20393;-72
2022/05/17 00:32:26;;;;;;;3.67;2.40;;;;;;;19.06;62.72;100794.81;4975110;28;20400;-72
2022/05/17 00:34:51;;;;;;;4.83;2.97;;;;;;;19.05;62.96;100806.88;4974760;28;20475;-72
2022/05/17 00:37:17;;;;;;;5.50;2.50;;;;;;;18.98;63.06;100805.59;4974895;28;20431;-72
2022/05/17 00:39:42;;;;;;;5.40;2.70;;;;;;;18.89;63.39;100799.94;4973695;28;20458;-72
2022/05/17 00:42:08;;;;;;;6.03;3.00;;;;;;;18.82;63.53;100804.13;4974849;28;20860;-72
2022/05/17 00:44:42;;;;;;;4.53;2.60;;;;;;;18.71;63.91;100800.66;4972965;28;20420;-72
2022/05/17 00:47:24;;;;;;;5.47;2.83;;;;;;;18.67;64.04;100802.38;4974639;28;20438;-72
2022/05/17 00:50:04;;;;;;;3.57;2.53;;;;;;;18.59;64.34;100806.56;4974740;28;20427;-72
2022/05/17 00:52:50;;;;;;;4.97;2.90;;;;;;;18.53;64.71;100815.97;4973089;28;20388;-72
2022/05/17 00:55:30;;;;;;;7.35;3.20;;;;;;;18.51;64.69;100806.34;4973427;28;20695;-72
2022/05/17 00:58:25;;;;;;;3.67;3.07;;;;;;;18.58;64.44;100804.09;4974751;28;20389;-72
2022/05/17 01:01:18;;;;;;;5.07;3.00;;;;;;;18.70;64.12;100807.28;4973666;28;20400;-72
2022/05/17 01:04:03;;;;;;;3.75;2.95;;;;;;;18.78;63.74;100803.06;4974544;28;20451;-71
2022/05/17 01:06:34;;;;;;;4.38;2.80;;;;;;;18.80;63.54;100804.44;4972701;28;20423;-72
2022/05/17 01:08:59;;;;;;;3.47;3.13;;;;;;;18.79;63.34;100796.47;4973173;28;20483;-72
2022/05/17 01:11:24;;;;;;;5.85;3.45;;;;;;;18.78;63.68;100797.56;4974271;28;20486;-72
2022/05/17 01:16:34;;;;;;;2.90;2.58;;;;;;;18.72;63.34;100799.56;4974207;28;20455;-72
2022/05/17 01:19:00;;;;;;;3.10;2.70;;;;;;;18.69;63.40;100802.91;4974412;28;20393;-72
2022/05/17 01:21:25;;;;;;;3.20;2.70;;;;;;;18.66;63.32;100795.25;4971875;28;20482;-72
2022/05/17 01:23:51;;;;;;;5.68;3.08;;;;;;;18.64;63.24;100791.94;4974467;28;20392;-72
2022/05/17 01:26:20;;;;;;;5.30;3.00;;;;;;;18.66;63.16;100798.00;4972870;28;20763;-72
2022/05/17 01:28:46;;;;;;;5.70;2.95;;;;;;;18.66;62.83;100800.72;4973995;28;20392;-72
2022/05/17 01:31:12;;;;;;;3.65;2.80;;;;;;;18.66;62.61;100798.00;4974013;28;20418;-72
2022/05/17 01:33:39;;;;;;;4.43;2.83;;;;;;;18.65;62.54;100799.09;4972197;28;20431;-72
2022/05/17 01:36:08;;;;;;;5.07;2.80;;;;;;;18.61;62.47;100798.03;4973899;28;20404;-72
2022/05/17 01:38:34;;;;;;;3.60;2.30;;;;;;;18.57;62.57;100794.25;4973970;28;20387;-72
2022/05/17 01:41:00;;;;;;;4.88;2.70;;;;;;;18.55;62.44;100799.19;4972555;28;20455;-72
2022/05/17 01:43:26;;;;;;;4.50;2.87;;;;;;;18.54;62.21;100794.81;4972509;28;20400;-72
2022/05/17 01:45:52;;;;;;;4.43;2.33;;;;;;;18.54;62.29;100795.63;4973966;28;20396;-72
2022/05/17 01:48:17;;;;;;;4.50;2.55;;;;;;;18.54;62.08;100792.09;4971335;28;20423;-72
2022/05/17 01:50:43;;;;;;;5.90;2.30;;;;;;;18.53;62.09;100791.25;4973669;28;20400;-72
2022/05/17 01:53:08;;;;;;;3.92;2.30;;;;;;;18.53;61.99;100787.69;4973545;28;20484;-72
2022/05/17 01:55:34;;;;;;;4.03;2.13;;;;;;;18.49;62.29;100794.81;4973590;28;20759;-72
2022/05/17 01:58:00;;;;;;;5.90;2.50;;;;;;;18.43;62.59;100798.72;4973390;28;20499;-72
2022/05/17 02:00:26;;;;;;;6.50;2.78;;;;;;;18.39;62.81;100801.22;4971312;28;20420;-72
2022/05/17 02:02:51;;;;;;;3.55;2.20;;;;;;;18.38;62.96;100807.81;4973377;28;20409;-72
2022/05/17 02:05:19;;;;;;;2.60;2.13;;;;;;;18.35;63.01;100797.41;4972951;28;20760;-72
2022/05/17 02:07:44;;;;;;;2.92;1.88;;;;;;;18.32;62.98;100795.25;4972887;28;20888;-72
2022/05/17 02:10:10;;;;;;;3.43;2.53;;;;;;;18.31;63.16;100790.06;4972336;28;20518;-72
2022/05/17 02:12:36;;;;;;;2.55;1.98;;;;;;;18.30;63.25;100792.00;4973267;28;20764;-72
2022/05/17 02:15:04;;;;;;;2.73;2.00;;;;;;;18.32;63.09;100791.69;4973186;28;20399;-72
2022/05/17 02:17:29;;;;;;;2.97;2.20;;;;;;;18.32;63.21;100784.28;4971074;28;20408;-72
2022/05/17 02:19:54;;;;;;;4.43;2.40;;;;;;;18.30;63.34;100782.94;4973085;28;20888;-72
2022/05/17 02:22:20;;;;;;;5.00;2.40;;;;;;;18.23;63.67;100791.50;4973115;28;20407;-72
2022/05/17 02:24:45;;;;;;;3.10;2.47;;;;;;;18.20;63.81;100794.00;4971949;28;20404;-72
2022/05/17 02:27:11;;;;;;;2.78;2.55;;;;;;;18.17;63.86;100797.31;4972887;28;20510;-72
2022/05/17 02:29:36;;;;;;;5.97;2.93;;;;;;;18.15;63.92;100801.16;4973004;28;20493;-72
2022/05/17 02:32:02;;;;;;;4.97;3.10;;;;;;;18.11;64.10;100799.28;4971758;28;20424;-72
2022/05/17 02:34:27;;;;;;;3.75;2.22;;;;;;;18.08;64.17;100797.09;4972786;28;20417;-72
2022/05/17 02:36:53;;;;;;;3.50;2.58;;;;;;;18.08;64.21;100791.59;4973077;28;20547;-72
2022/05/17 02:39:18;;;;;;;4.63;2.30;;;;;;;18.09;64.06;100796.81;4972876;28;20439;-71
2022/05/17 02:41:43;;;;;;;3.07;2.53;;;;;;;18.12;63.88;100792.69;4972816;28;20396;-73
2022/05/17 02:44:08;;;;;;;2.73;2.40;;;;;;;18.11;63.45;100802.03;4972816;28;20400;-72
2022/05/17 02:46:34;;;;;;;4.27;2.30;;;;;;;18.08;63.25;100802.56;4971362;28;20420;-72
2022/05/17 02:49:04;;;;;;;2.95;2.40;;;;;;;18.03;62.88;100795.22;4972961;28;20392;-72
2022/05/17 02:51:29;;;;;;;2.53;2.33;;;;;;;17.98;62.86;100797.19;4957693;28;20396;-72
2022/05/17 02:53:54;;;;;;;4.30;2.20;;;;;;;17.92;62.44;100810.09;4971542;28;20812;-72
2022/05/17 02:56:20;;;;;;;3.93;2.10;;;;;;;17.86;62.32;100808.50;4970216;28;20422;-72
2022/05/17 02:58:45;;;;;;;2.53;1.90;;;;;;;17.80;62.19;100814.31;4972707;28;20454;-72
2022/05/17 03:01:10;;;;;;;2.60;2.40;;;;;;;17.73;62.42;100817.38;4972550;28;20400;-72
2022/05/17 03:03:41;;;;;;;2.27;2.13;;;;;;;17.67;62.66;100818.50;4972806;28;20408;-72
2022/05/17 03:06:08;;;;;;;4.28;2.17;;;;;;;17.65;63.04;100815.19;4972684;28;20749;-72
2022/05/17 03:08:33;;;;;;;2.83;2.00;;;;;;;17.64;63.19;100824.56;4972728;28;20457;-72
2022/05/17 03:10:59;;;;;;;3.65;2.60;;;;;;;17.63;63.35;100818.25;4971361;28;20411;-72
2022/05/17 03:13:25;;;;;;;3.80;2.33;;;;;;;17.62;63.16;100824.81;4972820;28;20393;-72
2022/05/17 03:15:51;;;;;;;3.80;2.70;;;;;;;17.67;63.42;100826.72;4972794;28;20392;-72
2022/05/17 03:18:17;;;;;;;5.07;2.35;;;;;;;17.73;63.51;100825.59;4975484;28;20847;-72
2022/05/17 03:20:42;;;;;;;2.90;2.23;;;;;;;17.77;63.51;100823.09;4976448;28;20392;-72
2022/05/17 03:23:07;;;;;;;3.23;2.20;;;;;;;17.78;63.57;100822.00;4976433;28;20392;-72
2022/05/17 03:25:33;;;;;;;4.63;2.60;;;;;;;17.78;63.65;100831.06;4975476;28;20423;-72
2022/05/17 03:27:58;;;;;;;5.33;2.70;;;;;;;17.78;63.58;100828.31;4976129;28;20419;-72
2022/05/17 03:30:24;;;;;;;4.38;2.35;;;;;;;17.78;63.70;100832.97;4976237;28;20403;-72
2022/05/17 03:32:49;;;;;;;3.07;2.40;;;;;;;17.78;63.59;100842.03;4975942;28;20427;-72
2022/05/17 03:35:14;;;;;;;3.37;2.43;;;;;;;17.77;63.61;100836.81;4976123;28;20400;-72
2022/05/17 03:37:39;;;;;;;2.87;2.20;;;;;;;17.77;63.53;100839.53;4976050;28;20388;-72
2022/05/17 03:40:07;;;;;;;2.87;2.47;;;;;;;17.77;63.59;100839.53;4972865;28;20416;-72
2022/05/17 03:42:33;;;;;;;5.68;3.30;;;;;;;17.75;63.67;100837.06;4976224;28;20399;-72
2022/05/17 03:44:58;;;;;;;2.40;2.20;;;;;;;17.75;63.76;100842.56;4976123;28;20803;-72
2022/05/17 03:47:24;;;;;;;3.73;2.50;;;;;;;17.74;64.02;100842.84;4975769;28;20527;-72
2022/05/17 03:49:49;;;;;;;4.25;2.90;;;;;;;17.74;63.89;100851.91;4976033;28;20403;-72
2022/05/17 03:52:14;;;;;;;5.20;2.43;;;;;;;17.73;63.37;100847.50;4975765;28;20397;-72
2022/05/17 03:54:40;;;;;;;2.63;2.23;;;;;;;17.67;62.85;100845.09;4974658;28;20422;-72
2022/05/17 03:57:06;;;;;;;2.90;2.30;;;;;;;17.58;62.65;100850.34;4975653;28;20478;-72
2022/05/17 03:59:32;;;;;;;5.10;2.38;;;;;;;17.49;62.30;100850.06;4975823;28;20479;-72
2022/05/17 04:01:58;;;;;;;2.65;2.33;;;;;;;17.40;62.43;100854.50;4975630;28;20931;-72
2022/05/17 04:04:23;;;;;;;4.75;2.40;;;;;;;17.35;62.64;100849.06;4975683;28;20393;-72
2022/05/17 04:06:49;;;;;;;4.80;2.20;;;;;;;17.31;62.87;100852.63;4973308;28;20428;-72
2022/05/17 04:09:14;;;;;;;2.80;2.60;;;;;;;17.30;62.74;100851.78;4974499;28;20415;-72
2022/05/17 04:11:39;;;;;;;4.07;2.87;;;;;;;17.29;63.01;100860.31;4975302;28;20400;-72
2022/05/17 04:14:06;;;;;;;2.83;2.43;;;;;;;17.26;63.25;100849.88;4972028;28;20460;-72
2022/05/17 04:16:32;;;;;;;2.97;2.47;;;;;;;17.26;63.49;100849.88;4974963;28;20400;-71
2022/05/17 04:18:58;;;;;;;6.32;2.58;;;;;;;17.26;63.45;100852.63;4968082;28;20438;-71
2022/05/17 04:21:24;;;;;;;6.47;2.65;;;;;;;17.27;63.59;100849.63;4975222;28;20901;-71
2022/05/17 04:23:50;;;;;;;3.63;2.63;;;;;;;17.31;63.74;100856.19;4975277;28;20392;-71
2022/05/17 04:26:15;;;;;;;3.47;2.93;;;;;;;17.35;63.93;100859.19;4975443;28;20415;-71
2022/05/17 04:28:40;;;;;;;3.70;2.80;;;;;;;17.38;63.93;100853.16;4974429;28;20420;-71
2022/05/17 04:31:05;;;;;;;4.13;2.80;;;;;;;17.41;64.08;100856.16;4978619;28;20405;-71
2022/05/17 04:33:31;;;;;;;8.10;3.17;;;;;;;17.46;64.01;100858.84;4973202;28;20899;-71
2022/05/17 04:35:56;;;;;;;5.13;2.80;;;;;;;17.49;64.17;100852.81;4975748;28;20411;-71
2022/05/17 04:38:22;;;;;;;3.20;2.90;;;;;;;17.52;64.30;100856.91;4984980;28;20403;-71
2022/05/17 04:40:48;;;;;;;4.20;2.67;;;;;;;17.52;64.31;100851.41;4980134;28;20404;-71
2022/05/17 04:43:13;;;;;;;7.32;3.22;;;;;;;17.50;64.62;100859.94;4973820;28;20906;-71
2022/05/17 04:45:39;;;;;;;5.88;3.20;;;;;;;17.53;64.74;100864.84;4974479;28;20416;-71
2022/05/17 04:48:05;;;;;;;5.40;3.13;;;;;;;17.56;64.75;100874.47;4954147;28;20461;-71
2022/05/17 04:50:30;;;;;;;5.97;2.80;;;;;;;17.58;64.60;100872.28;4967285;28;20847;-71
2022/05/17 04:52:56;;;;;;;3.83;2.85;;;;;;;17.62;64.67;100878.81;4973964;28;20757;-71
2022/05/17 04:55:22;;;;;;;3.70;3.17;;;;;;;17.64;64.56;100876.63;4973428;28;20876;-71
2022/05/17 04:57:47;;;;;;;6.43;3.10;;;;;;;17.66;64.49;100870.84;4973199;28;20431;-72
2022/05/17 05:00:16;;;;;;;5.90;3.05;;;;;;;17.66;64.37;100873.59;4971723;28;20907;-72
2022/05/17 05:02:42;;;;;;;2.80;2.60;;;;;;;17.67;64.73;100884.28;4968863;28;20411;-71
2022/05/17 05:05:07;;;;;;;5.50;2.83;;;;;;;17.62;65.06;100885.13;4972343;28;20409;-71
2022/05/17 05:07:33;;;;;;;3.65;2.63;;;;;;;17.66;65.03;100884.56;4972638;28;20424;-71
2022/05/17 05:09:58;;;;;;;6.53;3.13;;;;;;;17.71;64.93;100887.28;4973137;28;20408;-72
2022/05/17 05:12:24;;;;;;;5.97;3.13;;;;;;;17.71;65.11;100887.28;4974220;28;20404;-72
2022/05/17 05:14:50;;;;;;;5.05;3.05;;;;;;;17.71;65.26;100890.84;4974264;28;20479;-72
2022/05/17 05:17:15;;;;;;;5.47;2.90;;;;;;;17.75;65.24;100891.91;4973445;28;20563;-72
2022/05/17 05:19:40;;;;;;;3.60;2.70;;;;;;;17.76;65.06;100898.22;4972040;28;20415;-71
2022/05/17 05:22:06;;;;;;;3.40;3.10;;;;;;;17.81;64.91;100910.00;4969330;28;21088;-72
2022/05/17 05:24:32;;;;;;;5.10;3.40;;;;;;;17.82;64.97;100899.81;4971517;28;20401;-72
2022/05/17 05:26:57;;;;;;;4.63;3.10;;;;;;;17.82;64.90;100899.81;4973834;28;20551;-72
2022/05/17 05:29:23;;;;;;;5.55;3.13;;;;;;;17.88;64.75;100899.50;4971717;28;20891;-72
2022/05/17 05:31:48;;;;;;;5.97;3.22;;;;;;;17.94;64.66;100905.81;4970170;28;20424;-72
2022/05/17 05:34:14;;;;;;;3.53;3.07;;;;;;;17.91;64.76;100909.94;4972736;28;20447;-72
2022/05/17 05:36:39;;;;;;;3.77;2.97;;;;;;;17.89;65.06;100905.81;4972811;28;20400;-72
2022/05/17 05:39:04;;;;;;;4.75;3.60;;;;;;;17.94;64.98;100911.28;4972964;28;20442;-73
2022/05/17 05:41:29;;;;;;;3.70;3.30;;;;;;;17.99;64.89;100905.75;4971241;28;20415;-72
2022/05/17 05:43:55;;;;;;;3.57;2.83;;;;;;;17.99;65.03;100901.09;4973698;28;20490;-73
2022/05/17 05:46:21;;;;;;;4.35;3.22;;;;;;;18.01;65.06;100906.31;4973253;28;20423;-72
2022/05/17 05:48:46;;;;;;;4.45;3.15;;;;;;;18.05;64.92;100912.84;4973363;28;20807;-72
2022/05/17 05:51:12;;;;;;;3.03;2.67;;;;;;;18.07;64.91;100907.91;4973423;28;20771;-72
2022/05/17 05:53:38;;;;;;;2.53;2.33;;;;;;;18.01;64.92;100898.88;4973155;28;20946;-72
2022/05/17 05:56:05;;;;;;;5.20;3.30;;;;;;;18.02;64.82;100903.28;4972102;28;20907;-72
2022/05/17 05:58:33;;;;;;;3.58;2.85;;;;;;;18.06;64.64;100904.34;4972089;28;20737;-73
2022/05/17 06:00:59;;;;;;;5.03;2.57;;;;;;;18.13;64.63;100915.84;4971976;28;20401;-73
2022/05/17 06:03:26;;;;;;;5.03;4.55;;;;;;;18.18;64.51;100914.97;4972226;28;20443;-73
2022/05/17 06:05:52;;;;;;;5.57;3.30;;;;;;;18.15;64.51;100916.34;4972939;28;20400;-73
2022/05/17 06:08:17;;;;;;;3.65;2.80;;;;;;;18.18;64.78;100912.22;4972800;28;20427;-73
2022/05/17 06:10:43;;;;;;;9.35;5.70;;;;;;;18.20;64.97;100921.00;4971801;28;20424;-73
2022/05/17 06:13:10;;;;;;;3.30;3.03;;;;;;;18.22;65.12;100918.78;4973135;28;20493;-72
2022/05/17 06:15:36;;;;;;;4.80;3.60;;;;;;;18.26;65.53;100919.88;4971405;28;20829;-73
2022/05/17 06:18:05;;;;;;;6.13;3.33;;;;;;;18.34;65.80;100915.72;4972917;28;20487;-73
2022/05/17 06:20:31;;;;;;;6.03;3.20;;;;;;;18.42;65.42;100917.81;4973017;28;20405;-74
2022/05/17 06:22:56;;;;;;;4.03;3.15;;;;;;;18.49;65.47;100919.16;4973013;28;20778;-74
2022/05/17 06:25:22;;;;;;;4.57;2.90;;;;;;;18.57;65.70;100924.03;4971720;28;20404;-73
2022/05/17 06:27:47;;;;;;;5.73;3.50;;;;;;;18.67;65.31;100920.44;4971602;28;20907;-73
2022/05/17 06:30:14;;;;;;;5.35;3.33;;;;;;;18.75;65.54;100929.94;4972625;28;20408;-72
2022/05/17 06:32:39;;;;;;;9.35;3.83;;;;;;;18.79;65.51;100915.38;4972783;28;20455;-73
2022/05/17 06:35:05;;;;;;;6.93;3.47;;;;;;;18.83;65.50;100919.19;4972474;28;20409;-73
2022/05/17 06:37:30;;;;;;;5.53;3.75;;;;;;;18.89;65.85;100920.78;4971158;28;20476;-72
2022/05/17 06:39:55;;;;;;;4.10;3.63;;;;;;;18.95;65.64;100916.88;4970905;28;20411;-72
2022/05/17 06:42:21;;;;;;;6.97;3.70;;;;;;;19.03;65.50;100924.47;4972685;28;20902;-73
2022/05/17 06:44:48;;;;;;;5.67;3.53;;;;;;;19.05;65.54;100916.75;4972250;28;21416;-73
2022/05/17 06:47:13;;;;;;;6.17;3.73;;;;;;;19.09;65.56;100925.25;4971858;28;20511;-73
2022/05/17 06:49:40;;;;;;;7.10;3.70;;;;;;;19.12;65.82;100917.25;4972325;28;20416;-73
2022/05/17 06:52:08;;;;;;;6.50;4.03;;;;;;;19.15;65.93;100913.91;4973755;28;20410;-74
2022/05/17 06:54:34;;;;;;;4.57;3.88;;;;;;;19.20;66.04;100920.47;4978835;28;20415;-73
2022/05/17 06:57:10;;;;;;;3.95;3.35;;;;;;;19.25;66.33;100917.66;4977613;28;20512;-72
2022/05/17 06:59:39;;;;;;;6.15;3.38;;;;;;;19.26;65.97;100917.38;4979151;28;20412;-72
2022/05/17 07:02:05;;;;;;;4.43;3.60;;;;;;;19.31;65.53;100922.81;4978084;28;20497;-72
2022/05/17 07:04:31;;;;;;;5.53;3.70;;;;;;;19.37;65.39;100923.56;4977240;28;20476;-73
2022/05/17 07:06:58;;;;;;;5.93;3.30;;;;;;;19.43;65.12;100926.00;4977761;28;20435;-73
2022/05/17 07:09:25;;;;;;;3.28;2.97;;;;;;;19.46;64.95;100919.91;4974651;28;20527;-73
2022/05/17 07:14:39;;;;;;;2.90;2.65;;;;;;;19.52;64.61;100915.19;4979068;28;20890;-73
2022/05/17 07:17:06;;;;;;;5.30;2.85;;;;;;;19.56;64.38;100922.53;4978907;28;20527;-73
2022/05/17 07:19:34;;;;;;;3.47;3.15;;;;;;;19.60;64.60;100920.84;4978201;28;20416;-73
2022/05/17 07:22:01;;;;;;;3.07;2.80;;;;;;;19.63;64.05;100923.00;4974207;28;20408;-72
2022/05/17 07:24:27;;;;;;;5.32;2.85;;;;;;;19.71;63.80;100918.81;4979010;28;20419;-72
2022/05/17 07:26:53;;;;;;;3.35;2.65;;;;;;;19.81;63.84;100918.69;4977554;28;20423;-73
2022/05/17 07:29:18;;;;;;;3.10;2.70;;;;;;;19.88;63.66;100915.56;4978725;28;20519;-72
2022/05/17 07:31:45;;;;;;;4.23;2.73;;;;;;;19.98;63.63;100916.25;4978782;28;21006;-72
2022/05/17 07:34:10;;;;;;;5.18;2.72;;;;;;;20.09;63.25;100919.66;4978650;28;20504;-73
2022/05/17 07:36:39;;;;;;;3.53;2.40;;;;;;;20.16;62.84;100920.94;4977072;28;20551;-73
2022/05/17 07:39:04;;;;;;;3.00;2.50;;;;;;;20.23;62.75;100917.81;4976998;28;20419;-72
2022/05/17 07:41:31;;;;;;;4.83;3.00;;;;;;;20.31;63.11;100916.34;4978094;28;20396;-73
2022/05/17 07:43:56;;;;;;;5.57;2.80;;;;;;;20.40;63.15;100914.56;4977454;28;20392;-73
2022/05/17 07:46:22;;;;;;;2.60;2.30;;;;;;;20.48;63.22;100909.19;4976818;28;20415;-73
2022/05/17 07:48:47;;;;;;;4.73;3.10;;;;;;;20.54;62.96;100904.44;4977011;28;20388;-72
2022/05/17 07:51:12;;;;;;;3.13;2.83;;;;;;;20.61;62.69;100913.13;4977646;28;20416;-72
2022/05/17 07:53:37;;;;;;;7.07;3.30;;;;;;;20.74;62.56;100906.03;4978931;28;20400;-71
2022/05/17 07:56:04;;;;;;;3.50;2.57;;;;;;;20.84;62.55;100911.34;4977458;28;20446;-72
2022/05/17 07:58:29;;;;;;;4.10;2.50;;;;;;;20.90;62.72;100908.22;4978028;28;20404;-72
2022/05/17 08:00:55;;;;;;;4.37;2.90;;;;;;;20.98;63.22;100907.50;4977473;28;20875;-72
2022/05/17 08:03:21;;;;;;;5.38;2.65;;;;;;;21.09;62.93;100910.91;4975820;28;20451;-72
2022/05/17 08:05:47;;;;;;;2.75;2.50;;;;;;;21.13;62.38;100910.03;4972867;28;20420;-72
2022/05/17 08:08:12;;;;;;;3.87;2.83;;;;;;;21.21;61.85;100914.00;4975248;28;20445;-73
2022/05/17 08:10:39;;;;;;;6.95;2.97;;;;;;;21.28;61.46;100913.59;4974918;28;20416;-72
2022/05/17 08:13:05;;;;;;;4.85;2.75;;;;;;;21.37;61.25;100911.78;4975576;28;20791;-73
2022/05/17 08:15:32;;;;;;;4.67;2.80;;;;;;;21.45;60.55;100906.38;4975504;28;20722;-73
2022/05/17 08:18:02;;;;;;;3.13;2.78;;;;;;;21.57;60.13;100908.63;4975655;28;20411;-73
2022/05/17 08:20:28;;;;;;;4.50;3.20;;;;;;;21.64;59.67;100903.50;4973724;28;20962;-73
2022/05/17 08:22:53;;;;;;;6.60;3.50;;;;;;;21.72;59.21;100903.59;4975204;28;20428;-72
2022/05/17 08:28:05;;;;;;;7.07;3.70;;;;;;;21.86;58.13;100908.28;4975155;28;20455;-73
2022/05/17 08:30:31;;;;;;;4.00;3.58;;;;;;;21.90;58.77;100912.88;4975224;28;20449;-73
2022/05/17 08:33:15;;;;;;;3.22;2.75;;;;;;;21.93;58.10;100908.72;4977465;28;20510;-73
2022/05/17 08:35:52;;;;;;;8.00;2.85;;;;;;;22.02;57.39;100909.59;4960193;28;20499;-73
2022/05/17 08:38:20;;;;;;;6.60;3.17;;;;;;;22.08;57.54;100908.38;4974815;28;20966;-73
2022/05/17 08:41:12;;;;;;;4.22;2.70;;;;;;;22.16;56.24;100904.88;4975044;28;20396;-73
2022/05/17 08:43:57;;;;;;;4.88;2.90;;;;;;;22.25;55.17;100905.75;4960642;28;20397;-73
2022/05/17 08:46:26;;;;;;;4.17;2.70;;;;;;;22.29;54.64;100905.97;4974807;28;20412;-73
2022/05/17 08:49:01;;;;;;;5.10;2.90;;;;;;;22.33;55.27;100907.75;4973834;28;20451;-73
2022/05/17 08:52:01;;;;;;;5.07;2.97;;;;;;;22.43;54.88;100901.19;4960389;28;20471;-73
2022/05/17 08:54:54;;;;;;;3.88;2.63;;;;;;;22.52;54.91;100900.16;4971716;28;20408;-73
2022/05/17 08:57:33;;;;;;;6.63;3.13;;;;;;;22.64;54.25;100902.31;4947826;28;20399;-72
2022/05/17 09:00:09;;;;;;;5.03;2.85;;;;;;;22.72;54.15;100907.94;4957678;28;20755;-73
2022/05/17 09:02:42;;;;;;;4.88;2.90;;;;;;;22.79;53.10;100901.97;4974478;28;20401;-73
2022/05/17 09:05:26;;;;;;;6.30;3.40;;;;;;;22.87;53.40;100906.75;4960645;28;20423;-73
2022/05/17 09:08:07;;;;;;;2.95;2.75;;;;;;;22.96;52.87;100912.31;4974831;28;20430;-73
2022/05/17 09:10:41;;;;;;;3.17;2.42;;;;;;;23.03;51.92;100913.50;4974513;28;20403;-73
2022/05/17 09:13:25;;;;;;;4.80;2.75;;;;;;;23.04;51.94;100915.13;4974403;28;20396;-73
2022/05/17 09:15:55;;;;;;;4.68;2.40;;;;;;;23.18;51.67;100912.28;4974020;28;20883;-73
2022/05/17 09:18:23;;;;;;;4.90;2.40;;;;;;;23.30;51.60;100906.16;4974136;28;20930;-73
2022/05/17 09:20:49;;;;;;;4.25;2.28;;;;;;;23.40;51.13;100911.41;4972591;28;20412;-73
2022/05/17 09:23:14;;;;;;;4.07;2.30;;;;;;;23.51;50.26;100915.53;4972441;28;20432;-73
2022/05/17 09:25:48;;;;;;;5.93;2.57;;;;;;;23.63;49.96;100908.25;4972775;28;20397;-73
2022/05/17 09:28:23;;;;;;;5.72;2.15;;;;;;;23.74;49.42;100906.00;4973871;28;20423;-73
2022/05/17 09:31:06;;;;;;;4.68;1.75;;;;;;;23.83;48.36;100906.03;4969337;28;20404;-73
2022/05/17 09:33:32;;;;;;;2.33;1.70;;;;;;;23.97;47.61;100899.22;4972642;28;20844;-73
2022/05/17 09:36:00;;;;;;;1.90;1.60;;;;;;;24.13;46.36;100896.81;4972951;28;20507;-72
2022/05/17 09:38:34;;;;;;;3.65;1.30;;;;;;;24.26;45.67;100891.13;4973858;28;20747;-72
2022/05/17 09:41:00;;;;;;;4.35;1.60;;;;;;;24.38;45.08;100896.00;4973942;28;20521;-72
2022/05/17 09:44:00;;;;;;;3.35;1.52;;;;;;;24.51;44.66;100885.88;4973860;28;20384;-72
2022/05/17 09:46:35;;;;;;;1.60;1.50;;;;;;;24.64;45.55;100891.25;4957768;28;20424;-72
2022/05/17 09:54:53;;;;;;;1.83;1.55;;;;;;;25.33;44.12;100882.75;4973792;28;20392;-72
2022/05/17 09:57:24;;;;;;;4.03;2.05;;;;;;;25.78;43.06;100880.28;4973423;28;20894;-72
2022/05/17 09:59:54;;;;;;;1.90;1.80;;;;;;;26.43;42.16;100878.81;4973533;28;20445;-72
2022/05/17 10:02:34;;;;;;;2.72;1.70;;;;;;;27.23;40.34;100880.91;4973470;28;20905;-70
2022/05/17 10:05:12;;;;;;;3.50;1.83;;;;;;;27.96;39.20;100880.09;4972266;28;20485;-72
2022/05/17 10:07:38;;;;;;;1.67;1.58;;;;;;;28.62;37.88;100872.91;4972530;28;20431;-72
2022/05/17 10:10:29;;;;;;;3.55;2.00;;;;;;;29.07;37.10;100874.56;4973049;28;20901;-72
2022/05/17 10:13:01;;;;;;;4.30;2.13;;;;;;;29.38;35.90;100871.78;4972796;28;20412;-72
2022/05/17 10:15:28;;;;;;;5.47;2.10;;;;;;;29.66;34.74;100860.50;4973043;28;20772;-72
2022/05/17 10:18:02;;;;;;;3.40;2.00;;;;;;;29.97;34.38;100857.63;4973199;28;20407;-69
2022/05/17 10:20:38;;;;;;;2.60;1.80;;;;;;;30.12;34.14;100858.75;4970765;28;20451;-70
2022/05/17 10:23:25;;;;;;;1.70;1.53;;;;;;;30.38;33.74;100856.09;4973440;28;20455;-70
2022/05/17 10:26:02;;;;;;;4.80;1.58;;;;;;;30.72;32.86;100854.41;4957190;28;20388;-70
2022/05/17 10:28:30;;;;;;;4.75;1.75;;;;;;;30.95;31.66;100852.44;4972566;28;20565;-70
2022/05/17 10:30:55;;;;;;;3.53;1.98;;;;;;;31.17;31.53;100851.66;4973299;28;20422;-70
2022/05/17 10:33:30;;;;;;;2.80;1.80;;;;;;;31.54;31.85;100843.47;4972749;28;20899;-70
2022/05/17 10:36:01;;;;;;;2.53;1.50;;;;;;;31.88;31.52;100849.97;4973133;28;20411;-70
2022/05/17 10:38:34;;;;;;;1.70;1.60;;;;;;;32.20;30.78;100850.44;4971729;28;20396;-70
2022/05/17 10:41:03;;;;;;;3.28;1.83;;;;;;;32.67;29.23;100853.41;4970688;28;20408;-70
2022/05/17 10:43:29;;;;;;;2.70;1.60;;;;;;;33.04;28.61;100847.75;4970405;28;20400;-70
2022/05/17 10:46:08;;;;;;;2.60;1.53;;;;;;;33.17;28.21;100842.69;4972861;28;20432;-70
2022/05/17 10:48:58;;;;;;;2.92;1.40;;;;;;;33.24;27.51;100837.94;4971645;28;20509;-71
2022/05/17 10:51:56;;;;;;;1.43;1.33;;;;;;;33.28;26.63;100833.16;4957933;28;20392;-71
2022/05/17 10:54:57;;;;;;;2.53;1.70;;;;;;;33.36;27.24;100837.63;4972484;28;20890;-71
2022/05/17 10:58:19;;;;;;;2.35;1.40;;;;;;;33.39;27.74;100834.03;4969698;28;20443;-71
2022/05/17 11:00:54;;;;;;;1.58;1.40;;;;;;;33.70;27.42;100834.66;4948378;29;20401;-71
2022/05/17 11:03:32;;;;;;;2.30;1.50;;;;;;;33.85;27.14;100827.94;4950552;29;20813;-71
2022/05/17 11:06:15;;;;;;;3.47;1.88;;;;;;;34.03;26.41;100828.00;4960535;28;20424;-70
2022/05/17 11:09:10;;;;;;;2.60;1.52;;;;;;;34.36;26.53;100825.78;4970243;28;20416;-70
2022/05/17 11:11:45;;;;;;;4.22;1.75;;;;;;;34.38;25.84;100822.59;4965150;28;20475;-71
2022/05/17 11:14:19;;;;;;;2.70;1.65;;;;;;;34.35;25.97;100820.53;4968571;28;20432;-71
2022/05/17 11:17:27;;;;;;;3.78;1.80;;;;;;;34.43;25.67;100816.56;4965512;28;20494;-70
2022/05/17 11:20:04;;;;;;;4.20;1.60;;;;;;;34.44;25.92;100814.53;4963080;28;20930;-71
2022/05/17 11:22:58;;;;;;;5.15;1.60;;;;;;;34.38;25.17;100814.91;4971480;28;20816;-71
2022/05/17 11:25:36;;;;;;;4.68;1.40;;;;;;;34.44;24.96;100806.91;4961754;28;20483;-71
2022/05/17 11:28:23;;;;;;;3.50;1.40;;;;;;;34.65;24.80;100808.97;4971579;28;20903;-71
2022/05/17 11:31:00;;;;;;;4.70;1.53;;;;;;;34.80;25.14;100799.38;4972523;28;20539;-70
2022/05/17 11:33:32;;;;;;;2.92;1.30;;;;;;;34.74;25.13;100807.41;4968599;28;20424;-71
2022/05/17 11:35:59;;;;;;;1.92;1.33;;;;;;;34.58;25.67;100804.09;4970834;28;20412;-70
2022/05/17 11:38:30;;;;;;;2.30;1.70;;;;;;;34.33;25.71;100800.44;4977399;28;20407;-70
2022/05/17 11:40:58;;;;;;;2.00;1.33;;;;;;;34.46;25.89;100807.31;4973269;28;20416;-71
2022/05/17 11:43:42;;;;;;;2.33;1.50;;;;;;;34.39;25.68;100798.84;4973004;28;20419;-71
2022/05/17 11:46:29;;;;;;;3.30;1.60;;;;;;;34.49;24.97;100788.81;4971089;28;20443;-71
2022/05/17 11:48:59;;;;;;;2.30;1.35;;;;;;;34.43;25.32;100799.66;4975009;28;20424;-71